Stillwater, OK (74075)

5:06 AM CDT on September 21, 2014 (GMT -0500)
Stillwater, East Side | Change Station
CLOSE
Current Station
Personal Weather Station
Location: Stillwater, OK
Elevation: 935 ft
Nearby Weather Stations

Elev 935 ft 36.12 °N, 97.04 °W | Updated 3 seconds ago

Scattered Clouds
Scattered Clouds
71.3 °F
Feels Like 71.3 °F
N
0.0
Wind Variable Wind from SSE
Gusts 0.0 mph

Today
High -- | Low -- °F
--% Chance of Precip.
Yesterday
High -- | Low -- °F
Precip. -- in
7:15 AM 7:26 PM
Waning Crescent, 7% visible
Pressure 30.00 in
Visibility 10.0 miles
Clouds Scattered Clouds 10000 ft
Dew Point 68 °F
Humidity 88%
Rainfall 0.00 in
Snow Depth Not available.
UV 0.0 out of 12
Pollen 9.80 out of 12
Air Quality Not available.
Flu Activity Not available.
METAR KSWO 210953Z AUTO 21003KT 10SM SCT100 21/19 A3004 RMK AO2 SLP158 T02110189

More Conditions Fewer Conditions

Pressure 30.00 in
Visibility 10.0 miles
Clouds Scattered Clouds 10000 ft
Dew Point 68 °F
Humidity 88%
Rainfall 0.00 in
Snow Depth Not available.
UV 0.0 out of 12
Pollen 9.80 out of 12
Air Quality Not available.
Flu Activity Not available.
METAR KSWO 210953Z AUTO 21003KT 10SM SCT100 21/19 A3004 RMK AO2 SLP158 T02110189

More Conditions Fewer Conditions

10-Day Weather Forecast

Almanac

Astronomy

Sep. 21, 2014 Rise Set
Actual Time 7:15 AM CDT 7:26 PM CDT
Civil Twilight 6:49 AM CDT 7:52 PM CDT
Nautical Twilight 6:19 AM CDT 8:22 PM CDT
Astronomical Twilight 5:49 AM CDT 8:52 PM CDT
Moon 4:53 AM CDT 6:00 PM CDT
Length of Visible Light 13h 02m
Length of Day
12h 11m
Tomorrow will be 2m 17s shorter.
Waning Crescent, 7% of the Moon is Illuminated
Today
Waning Crescent
Sep 24
New
Oct 1
First Quarter
Oct 8
Full
Oct 15
Last Quarter

Today's Extremes

State Highs State Lows

Community

WunderPhotos

Upload Photos

1,755,106 photos uploaded!

Nearby

Snow Depth

Station Depth Elevation
No new snow has been reported.

Earthquake Activity

City Distance Mag. Time & Date
Medford, Oklahoma 59 miles 3.2 2:10 AM CDT
2014-09-20
Luther, Oklahoma 32 miles 2.7 4:47 PM CDT
2014-09-19
Guthrie, Oklahoma 29 miles 3.6 12:23 PM CDT
2014-09-19
Jones, Oklahoma 41 miles 2.8 1:13 AM CDT
2014-09-19
Minimum magnitude displayed is 2.5.

Coastal Water Temperatures

Place Temperature
No Stations Reporting

Nearby Weather Stations